createdAt,value
2016-12-13T00:00:29.339Z,0
2016-12-13T00:01:29.347Z,0
2016-12-13T00:02:29.367Z,0
2016-12-13T00:03:29.383Z,0
2016-12-13T00:04:29.398Z,0
2016-12-13T00:05:29.410Z,0
2016-12-13T00:06:29.422Z,0
2016-12-13T00:07:29.437Z,0
2016-12-13T00:08:29.450Z,0
2016-12-13T00:09:29.467Z,0
2016-12-13T00:10:29.483Z,0
2016-12-13T00:11:29.491Z,0
2016-12-13T00:12:29.540Z,0
2016-12-13T00:13:29.527Z,0
2016-12-13T00:14:29.541Z,0
2016-12-13T00:15:29.550Z,0
2016-12-13T00:16:29.874Z,0
2016-12-13T00:17:29.575Z,0
2016-12-13T00:18:29.590Z,0
2016-12-13T00:19:29.607Z,0
2016-12-13T00:20:29.619Z,0
2016-12-13T00:21:29.632Z,0
2016-12-13T00:22:29.649Z,0
2016-12-13T00:23:29.660Z,0
2016-12-13T00:24:29.678Z,0
2016-12-13T00:25:29.692Z,0
2016-12-13T00:26:29.702Z,0
2016-12-13T00:27:29.713Z,0
2016-12-13T00:28:29.761Z,0
2016-12-13T00:29:29.742Z,0
2016-12-13T00:30:29.764Z,0
2016-12-13T00:31:29.770Z,0
2016-12-13T00:32:29.780Z,0
2016-12-13T00:33:29.797Z,0
2016-12-13T00:34:29.813Z,0
2016-12-13T00:35:29.826Z,0
2016-12-13T00:36:29.844Z,0
2016-12-13T00:37:29.856Z,0
2016-12-13T00:38:29.872Z,0
2016-12-13T00:39:29.886Z,0
2016-12-13T00:40:29.899Z,0
2016-12-13T00:41:29.911Z,0
2016-12-13T00:42:29.959Z,0
2016-12-13T00:43:29.942Z,0
2016-12-13T00:44:29.951Z,0
2016-12-13T00:45:29.966Z,0
2016-12-13T00:46:29.974Z,0
2016-12-13T00:47:29.995Z,0
2016-12-13T00:48:30.007Z,0
2016-12-13T00:49:30.024Z,0
2016-12-13T00:50:30.032Z,0
2016-12-13T00:51:30.052Z,0
2016-12-13T00:52:30.064Z,0
2016-12-13T00:53:30.077Z,0
2016-12-13T00:54:30.091Z,0
2016-12-13T00:55:30.099Z,0
2016-12-13T00:56:30.123Z,0
2016-12-13T00:57:30.129Z,0
2016-12-13T00:58:30.144Z,0
2016-12-13T00:59:30.166Z,0
2016-12-13T01:00:30.173Z,0
2016-12-13T01:01:30.186Z,0
2016-12-13T01:02:30.201Z,0
2016-12-13T01:03:30.222Z,0
2016-12-13T01:04:30.234Z,0
2016-12-13T01:05:30.245Z,0
2016-12-13T01:06:30.254Z,0
2016-12-13T01:07:30.268Z,0
2016-12-13T01:08:30.385Z,0
2016-12-13T01:09:30.304Z,0
2016-12-13T01:10:30.539Z,0
2016-12-13T01:11:30.331Z,0
2016-12-13T01:12:30.340Z,0
2016-12-13T01:13:30.359Z,0
2016-12-13T01:14:30.367Z,0
2016-12-13T01:15:30.384Z,0
2016-12-13T01:16:30.396Z,0
2016-12-13T01:17:30.411Z,0
2016-12-13T01:18:30.433Z,0
2016-12-13T01:19:30.441Z,0
2016-12-13T01:20:30.452Z,0
2016-12-13T01:21:30.467Z,0
2016-12-13T01:22:30.485Z,0
2016-12-13T01:23:30.494Z,0
2016-12-13T01:24:30.508Z,0
2016-12-13T01:25:30.521Z,0
2016-12-13T01:26:30.533Z,0
2016-12-13T01:27:30.549Z,0
2016-12-13T01:28:30.564Z,0
2016-12-13T01:29:30.577Z,0
2016-12-13T01:30:30.588Z,0
2016-12-13T01:31:30.605Z,0
2016-12-13T01:32:30.618Z,0
2016-12-13T01:33:30.944Z,0
2016-12-13T01:34:30.645Z,0
2016-12-13T01:35:30.663Z,0
2016-12-13T01:36:30.675Z,0
2016-12-13T01:37:30.687Z,0
2016-12-13T01:38:30.698Z,0
2016-12-13T01:39:30.719Z,0
2016-12-13T01:40:30.736Z,0
2016-12-13T01:41:30.750Z,0
2016-12-13T01:42:30.757Z,0
2016-12-13T01:43:30.811Z,0
2016-12-13T01:44:30.786Z,0
2016-12-13T01:45:30.809Z,0
2016-12-13T01:46:30.815Z,0
2016-12-13T01:47:30.827Z,0
2016-12-13T01:48:30.842Z,0
2016-12-13T01:49:30.865Z,0
2016-12-13T01:50:30.872Z,0
2016-12-13T01:51:30.892Z,0
2016-12-13T01:52:30.902Z,0
2016-12-13T01:53:30.919Z,0
2016-12-13T01:54:30.949Z,0
2016-12-13T01:55:30.973Z,0
2016-12-13T01:56:30.951Z,0
2016-12-13T01:57:30.968Z,0
2016-12-13T01:58:30.980Z,0
2016-12-13T01:59:30.997Z,0
2016-12-13T02:00:31.010Z,0
2016-12-13T02:01:31.031Z,0
2016-12-13T02:02:31.072Z,0
2016-12-13T02:03:31.054Z,0
2016-12-13T02:04:31.070Z,0
2016-12-13T02:05:31.084Z,0
2016-12-13T02:06:31.094Z,0
2016-12-13T02:07:31.121Z,0
2016-12-13T02:08:31.121Z,0
2016-12-13T02:09:31.137Z,0
2016-12-13T02:10:31.152Z,0
2016-12-13T02:11:31.198Z,0
2016-12-13T02:12:31.177Z,0
2016-12-13T02:13:31.188Z,0
2016-12-13T02:14:31.210Z,0
2016-12-13T02:15:31.259Z,0
2016-12-13T02:16:31.342Z,0
2016-12-13T02:17:31.275Z,0
2016-12-13T02:18:31.257Z,0
2016-12-13T02:19:31.282Z,0
2016-12-13T02:20:31.311Z,0
2016-12-13T02:21:31.305Z,0
2016-12-13T02:22:31.318Z,0
2016-12-13T02:23:31.442Z,0
2016-12-13T02:24:31.348Z,0
2016-12-13T02:25:31.354Z,0
2016-12-13T02:26:31.369Z,0
2016-12-13T02:27:31.390Z,0
2016-12-13T02:28:31.407Z,0
2016-12-13T02:29:31.410Z,0
2016-12-13T02:30:31.430Z,0
2016-12-13T02:31:31.448Z,0
2016-12-13T02:32:31.462Z,0
2016-12-13T02:33:31.475Z,0
2016-12-13T02:34:31.795Z,0
2016-12-13T02:35:31.500Z,0
2016-12-13T02:36:31.511Z,0
2016-12-13T02:37:31.525Z,0
2016-12-13T02:38:31.537Z,0
2016-12-13T02:39:31.552Z,0
2016-12-13T02:40:31.568Z,0
2016-12-13T02:41:31.585Z,0
2016-12-13T02:42:31.605Z,0
2016-12-13T02:43:31.635Z,0
2016-12-13T02:44:31.625Z,0
2016-12-13T02:45:31.639Z,0
2016-12-13T02:46:31.656Z,0
2016-12-13T02:47:31.687Z,0
2016-12-13T02:48:31.682Z,0
2016-12-13T02:49:31.698Z,0
2016-12-13T02:50:31.841Z,0
2016-12-13T02:51:31.730Z,0
2016-12-13T02:52:31.740Z,0
2016-12-13T02:53:31.761Z,0
2016-12-13T02:54:31.760Z,0
2016-12-13T02:55:31.778Z,0
2016-12-13T02:56:31.794Z,0
2016-12-13T02:57:31.804Z,0
2016-12-13T02:58:31.820Z,0
2016-12-13T02:59:31.834Z,0
2016-12-13T03:00:31.848Z,0
2016-12-13T03:01:31.866Z,0
2016-12-13T03:02:31.879Z,0
2016-12-13T03:03:31.893Z,0
2016-12-13T03:04:31.904Z,0
2016-12-13T03:05:31.913Z,0
2016-12-13T03:06:31.931Z,0
2016-12-13T03:07:31.960Z,0
2016-12-13T03:08:31.959Z,0
2016-12-13T03:09:31.969Z,0
2016-12-13T03:10:31.992Z,0
2016-12-13T03:11:32.002Z,0
2016-12-13T03:12:32.008Z,0
2016-12-13T03:13:32.032Z,0
2016-12-13T03:14:32.043Z,0
2016-12-13T03:15:32.058Z,0
2016-12-13T03:16:32.069Z,0
2016-12-13T03:17:32.086Z,0
2016-12-13T03:18:32.097Z,0
2016-12-13T03:19:32.110Z,0
2016-12-13T03:20:32.124Z,0
2016-12-13T03:21:32.140Z,0
2016-12-13T03:22:32.155Z,0
2016-12-13T03:23:32.166Z,0
2016-12-13T03:24:32.181Z,0
2016-12-13T03:25:32.195Z,0
2016-12-13T03:26:32.207Z,0
2016-12-13T03:27:32.223Z,0
2016-12-13T03:28:32.235Z,0
2016-12-13T03:29:32.255Z,0
2016-12-13T03:30:32.270Z,0
2016-12-13T03:31:32.282Z,0
2016-12-13T03:32:32.291Z,0
2016-12-13T03:33:32.301Z,0
2016-12-13T03:34:32.348Z,0
2016-12-13T03:35:32.331Z,0
2016-12-13T03:36:32.348Z,0
2016-12-13T03:37:32.365Z,0
2016-12-13T03:38:32.380Z,0
2016-12-13T03:39:32.485Z,0
2016-12-13T03:40:32.490Z,0
2016-12-13T03:41:32.659Z,0
2016-12-13T03:42:32.637Z,0
2016-12-13T03:43:32.672Z,0
2016-12-13T03:44:32.668Z,0
2016-12-13T03:45:32.604Z,0
2016-12-13T03:46:32.615Z,0
2016-12-13T03:47:32.807Z,0
2016-12-13T03:48:32.622Z,0
2016-12-13T03:49:32.626Z,0
2016-12-13T03:50:32.641Z,0
2016-12-13T03:51:32.649Z,0
2016-12-13T03:52:32.859Z,0
2016-12-13T03:53:32.784Z,0
2016-12-13T03:54:32.797Z,0
2016-12-13T03:55:32.809Z,0
2016-12-13T03:56:32.719Z,0
2016-12-13T03:57:32.780Z,0
2016-12-13T03:58:32.729Z,0
2016-12-13T03:59:32.737Z,0
2016-12-13T04:00:32.785Z,0
2016-12-13T04:01:32.795Z,0
2016-12-13T04:02:32.910Z,0
2016-12-13T04:03:32.805Z,0
2016-12-13T04:04:32.811Z,0
2016-12-13T04:05:32.841Z,0
2016-12-13T04:06:32.850Z,0
2016-12-13T04:07:32.880Z,0
2016-12-13T04:08:32.859Z,0
2016-12-13T04:09:32.813Z,0
2016-12-13T04:10:32.818Z,0
2016-12-13T04:11:32.831Z,0
2016-12-13T04:12:32.844Z,0
2016-12-13T04:13:32.865Z,0
2016-12-13T04:14:32.879Z,0
2016-12-13T04:15:33.015Z,0
2016-12-13T04:16:32.905Z,0
2016-12-13T04:17:33.036Z,0
2016-12-13T04:18:32.933Z,0
2016-12-13T04:19:32.955Z,0
2016-12-13T04:20:32.962Z,0
2016-12-13T04:21:33.088Z,0
2016-12-13T04:22:33.099Z,0
2016-12-13T04:23:33.117Z,0
2016-12-13T04:24:33.136Z,0
2016-12-13T04:25:33.035Z,0
2016-12-13T04:26:33.047Z,0
2016-12-13T04:27:33.183Z,0
2016-12-13T04:28:33.076Z,0
2016-12-13T04:29:33.089Z,0
2016-12-13T04:30:33.096Z,0
2016-12-13T04:31:33.113Z,0
2016-12-13T04:32:33.235Z,0
2016-12-13T04:33:33.135Z,0
2016-12-13T04:34:33.244Z,0
2016-12-13T04:35:33.167Z,0
2016-12-13T04:36:33.317Z,0
2016-12-13T04:37:33.228Z,0
2016-12-13T04:38:33.215Z,0
2016-12-13T04:39:33.224Z,0
2016-12-13T04:40:33.237Z,0
2016-12-13T04:41:33.263Z,0
2016-12-13T04:42:33.303Z,0
2016-12-13T04:43:33.280Z,0
2016-12-13T04:44:33.297Z,0
2016-12-13T04:45:33.426Z,0
2016-12-13T04:46:33.319Z,0
2016-12-13T04:47:33.455Z,0
2016-12-13T04:48:33.355Z,0
2016-12-13T04:49:33.493Z,0
2016-12-13T04:50:33.373Z,0
2016-12-13T04:51:33.384Z,0
2016-12-13T04:52:33.407Z,0
2016-12-13T04:53:33.419Z,0
2016-12-13T04:54:33.436Z,0
2016-12-13T04:55:33.782Z,0
2016-12-13T04:56:33.574Z,0
2016-12-13T04:57:33.470Z,0
2016-12-13T04:58:33.494Z,0
2016-12-13T04:59:33.502Z,0
2016-12-13T05:00:33.520Z,0
2016-12-13T05:01:33.643Z,0
2016-12-13T05:02:33.545Z,0
2016-12-13T05:03:33.565Z,0
2016-12-13T05:04:33.579Z,0
2016-12-13T05:05:33.589Z,0
2016-12-13T05:06:33.601Z,0
2016-12-13T05:07:33.617Z,0
2016-12-13T05:08:33.631Z,0
2016-12-13T05:09:33.640Z,0
2016-12-13T05:10:33.656Z,0
2016-12-13T05:11:33.787Z,0
2016-12-13T05:12:33.690Z,0
2016-12-13T05:13:33.783Z,0
2016-12-13T05:14:33.831Z,0
2016-12-13T05:15:33.727Z,0
2016-12-13T05:16:33.749Z,0
2016-12-13T05:17:33.809Z,0
2016-12-13T05:18:33.770Z,0
2016-12-13T05:19:33.783Z,0
2016-12-13T05:20:33.791Z,0
2016-12-13T05:21:33.808Z,0
2016-12-13T05:22:33.826Z,0
2016-12-13T05:23:33.842Z,0
2016-12-13T05:24:33.852Z,0
2016-12-13T05:25:33.862Z,0
2016-12-13T05:26:33.969Z,0
2016-12-13T05:27:33.888Z,0
2016-12-13T05:28:34.083Z,0
2016-12-13T05:29:34.110Z,0
2016-12-13T05:30:33.934Z,0
2016-12-13T05:31:33.951Z,0
2016-12-13T05:32:34.034Z,0
2016-12-13T05:33:33.981Z,0
2016-12-13T05:34:33.988Z,0
2016-12-13T05:35:34.003Z,0
2016-12-13T05:36:34.020Z,0
2016-12-13T05:37:34.031Z,0
2016-12-13T05:38:34.187Z,0
2016-12-13T05:39:34.191Z,0
2016-12-13T05:40:34.201Z,0
2016-12-13T05:41:34.208Z,0
2016-12-13T05:42:34.216Z,0
2016-12-13T05:43:34.227Z,0
2016-12-13T05:44:34.226Z,0
2016-12-13T05:45:34.138Z,0
2016-12-13T05:46:34.164Z,0
2016-12-13T05:47:34.174Z,0
2016-12-13T05:48:34.179Z,0
2016-12-13T05:49:34.205Z,0
2016-12-13T05:50:34.298Z,0
2016-12-13T05:51:34.219Z,0
2016-12-13T05:52:34.359Z,0
2016-12-13T05:53:34.254Z,0
2016-12-13T05:54:34.264Z,0
2016-12-13T05:55:34.279Z,0
2016-12-13T05:56:34.289Z,0
2016-12-13T05:57:34.304Z,0
2016-12-13T05:58:34.320Z,0
2016-12-13T05:59:34.334Z,0
2016-12-13T06:00:34.353Z,0
2016-12-13T06:01:34.368Z,0
2016-12-13T06:02:34.383Z,0
2016-12-13T06:03:34.386Z,0
2016-12-13T06:04:34.398Z,0
2016-12-13T06:05:34.423Z,0
2016-12-13T06:06:34.428Z,0
2016-12-13T06:07:34.443Z,0
2016-12-13T06:08:34.475Z,0
2016-12-13T06:09:34.472Z,0
2016-12-13T06:10:34.482Z,0
2016-12-13T06:11:34.500Z,0
2016-12-13T06:12:34.514Z,0
2016-12-13T06:13:34.536Z,0
2016-12-13T06:14:34.655Z,0
2016-12-13T06:15:34.563Z,0
2016-12-13T06:16:34.565Z,0
2016-12-13T06:17:34.585Z,0
2016-12-13T06:18:34.592Z,0
2016-12-13T06:19:34.609Z,0
2016-12-13T06:20:34.620Z,0
2016-12-13T06:21:34.647Z,0
2016-12-13T06:22:34.926Z,0
2016-12-13T06:23:34.668Z,0
2016-12-13T06:24:34.681Z,0
2016-12-13T06:25:34.814Z,0
2016-12-13T06:26:34.729Z,0
2016-12-13T06:27:35.162Z,0
2016-12-13T06:28:34.732Z,0
2016-12-13T06:29:34.866Z,0
2016-12-13T06:30:34.763Z,0
2016-12-13T06:31:34.778Z,0
2016-12-13T06:32:34.807Z,0
2016-12-13T06:33:34.918Z,0
2016-12-13T06:34:34.905Z,0
2016-12-13T06:35:34.931Z,0
2016-12-13T06:36:34.843Z,0
2016-12-13T06:37:34.969Z,0
2016-12-13T06:38:34.873Z,0
2016-12-13T06:39:34.892Z,0
2016-12-13T06:40:34.901Z,0
2016-12-13T06:41:34.921Z,0
2016-12-13T06:42:34.934Z,0
2016-12-13T06:43:34.945Z,0
2016-12-13T06:44:34.949Z,0
2016-12-13T06:45:35.172Z,0
2016-12-13T06:46:34.983Z,0
2016-12-13T06:47:34.998Z,4
2016-12-13T06:48:35.119Z,4
2016-12-13T06:49:35.055Z,4
2016-12-13T06:50:35.025Z,0
2016-12-13T06:51:35.176Z,4
2016-12-13T06:52:35.064Z,4
2016-12-13T06:53:35.401Z,4
2016-12-13T06:54:35.080Z,8
2016-12-13T06:55:35.231Z,4
2016-12-13T06:56:35.113Z,8
2016-12-13T06:57:35.448Z,8
2016-12-13T06:58:35.151Z,8
2016-12-13T06:59:35.160Z,12
2016-12-13T07:00:35.170Z,8
2016-12-13T07:01:35.192Z,12
2016-12-13T07:02:35.204Z,12
2016-12-13T07:03:35.212Z,16
2016-12-13T07:04:35.700Z,16
2016-12-13T07:05:35.711Z,16
2016-12-13T07:06:35.401Z,16
2016-12-13T07:07:35.262Z,20
2016-12-13T07:08:35.338Z,24
2016-12-13T07:09:35.323Z,24
2016-12-13T07:10:35.424Z,24
2016-12-13T07:11:35.433Z,28
2016-12-13T07:12:35.461Z,28
2016-12-13T07:13:35.352Z,28
2016-12-13T07:14:35.480Z,32
2016-12-13T07:15:35.375Z,32
2016-12-13T07:16:35.503Z,32
2016-12-13T07:17:35.513Z,36
2016-12-13T07:18:35.424Z,40
2016-12-13T07:19:35.428Z,48
2016-12-13T07:20:35.560Z,48
2016-12-13T07:21:35.456Z,48
2016-12-13T07:22:35.472Z,52
2016-12-13T07:23:35.487Z,52
2016-12-13T07:24:35.498Z,56
2016-12-13T07:25:35.508Z,60
2016-12-13T07:26:35.683Z,64
2016-12-13T07:27:35.634Z,72
2016-12-13T07:28:35.554Z,72
2016-12-13T07:29:35.584Z,72
2016-12-13T07:30:35.581Z,80
2016-12-13T07:31:35.604Z,76
2016-12-13T07:32:35.605Z,84
2016-12-13T07:33:35.626Z,88
2016-12-13T07:34:35.832Z,92
2016-12-13T07:35:35.652Z,100
2016-12-13T07:36:35.664Z,104
2016-12-13T07:37:35.671Z,112
2016-12-13T07:38:35.724Z,116
2016-12-13T07:39:35.709Z,124
2016-12-13T07:40:35.726Z,132
2016-12-13T07:41:36.056Z,136
2016-12-13T07:42:35.871Z,140
2016-12-13T07:43:35.844Z,136
2016-12-13T07:44:35.894Z,136
2016-12-13T07:45:35.784Z,132
2016-12-13T07:46:35.796Z,128
2016-12-13T07:47:35.920Z,128
2016-12-13T07:48:35.948Z,132
2016-12-13T07:49:35.845Z,132
2016-12-13T07:50:35.856Z,128
2016-12-13T07:51:35.984Z,120
2016-12-13T07:52:35.880Z,116
2016-12-13T07:53:36.212Z,120
2016-12-13T07:54:35.912Z,120
2016-12-13T07:55:35.929Z,132
2016-12-13T07:56:36.149Z,136
2016-12-13T07:57:36.167Z,144
2016-12-13T07:58:36.062Z,156
2016-12-13T07:59:35.981Z,168
2016-12-13T08:00:36.004Z,176
2016-12-13T08:01:36.012Z,184
2016-12-13T08:02:36.197Z,196
2016-12-13T08:03:36.173Z,204
2016-12-13T08:04:36.081Z,216
2016-12-13T08:05:36.058Z,228
2016-12-13T08:06:36.078Z,244
2016-12-13T08:07:36.089Z,264
2016-12-13T08:08:36.090Z,280
2016-12-13T08:09:36.119Z,284
2016-12-13T08:10:36.128Z,296
2016-12-13T08:11:36.140Z,304
2016-12-13T08:12:36.144Z,312
2016-12-13T08:13:36.162Z,316
2016-12-13T08:14:36.318Z,312
2016-12-13T08:15:36.336Z,308
2016-12-13T08:16:36.316Z,312
2016-12-13T08:17:36.217Z,308
2016-12-13T08:18:36.227Z,304
2016-12-13T08:19:36.245Z,296
2016-12-13T08:20:36.268Z,280
2016-12-13T08:21:36.276Z,268
2016-12-13T08:22:36.290Z,252
2016-12-13T08:23:36.298Z,236
2016-12-13T08:24:36.314Z,228
2016-12-13T08:25:36.326Z,216
2016-12-13T08:26:36.343Z,220
2016-12-13T08:27:36.356Z,224
2016-12-13T08:28:36.368Z,232
2016-12-13T08:29:36.390Z,236
2016-12-13T08:30:36.398Z,244
2016-12-13T08:31:36.413Z,256
2016-12-13T08:32:36.454Z,276
2016-12-13T08:33:36.443Z,300
2016-12-13T08:34:36.452Z,332
2016-12-13T08:35:36.463Z,360
2016-12-13T08:36:36.480Z,368
2016-12-13T08:37:36.606Z,368
2016-12-13T08:38:36.512Z,364
2016-12-13T08:39:36.523Z,364
2016-12-13T08:40:36.536Z,368
2016-12-13T08:41:36.590Z,368
2016-12-13T08:42:36.570Z,368
2016-12-13T08:43:36.580Z,368
2016-12-13T08:44:36.601Z,372
2016-12-13T08:45:36.608Z,376
2016-12-13T08:46:36.641Z,384
2016-12-13T08:47:36.647Z,400
2016-12-13T08:48:36.648Z,408
2016-12-13T08:49:36.687Z,416
2016-12-13T08:50:36.684Z,424
2016-12-13T08:51:36.694Z,428
2016-12-13T08:52:36.737Z,436
2016-12-13T08:53:36.723Z,444
2016-12-13T08:54:36.812Z,448
2016-12-13T08:55:36.770Z,444
2016-12-13T08:56:36.760Z,440
2016-12-13T08:57:36.790Z,436
2016-12-13T08:58:36.791Z,432
2016-12-13T08:59:36.801Z,432
2016-12-13T09:00:36.820Z,432
2016-12-13T09:01:36.841Z,436
2016-12-13T09:02:36.845Z,436
2016-12-13T09:03:37.171Z,440
2016-12-13T09:04:36.966Z,448
2016-12-13T09:05:36.897Z,456
2016-12-13T09:06:36.904Z,468
2016-12-13T09:07:36.921Z,476
2016-12-13T09:08:36.932Z,480
2016-12-13T09:09:37.043Z,480
2016-12-13T09:10:37.109Z,472
2016-12-13T09:11:37.013Z,476
2016-12-13T09:12:37.054Z,480
2016-12-13T09:13:37.058Z,484
2016-12-13T09:14:37.013Z,492
2016-12-13T09:15:37.035Z,492
2016-12-13T09:16:37.046Z,492
2016-12-13T09:17:37.067Z,496
2016-12-13T09:18:37.070Z,492
2016-12-13T09:19:37.090Z,488
2016-12-13T09:20:37.101Z,480
2016-12-13T09:21:37.117Z,480
2016-12-13T09:22:37.130Z,476
2016-12-13T09:23:37.150Z,476
2016-12-13T09:24:37.152Z,480
2016-12-13T09:25:37.177Z,484
2016-12-13T09:26:37.191Z,492
2016-12-13T09:27:37.213Z,504
2016-12-13T09:28:37.209Z,520
2016-12-13T09:29:37.230Z,540
2016-12-13T09:30:37.265Z,560
2016-12-13T09:31:37.705Z,568
2016-12-13T09:32:37.356Z,576
2016-12-13T09:33:37.382Z,576
2016-12-13T09:34:37.435Z,572
2016-12-13T09:35:37.424Z,572
2016-12-13T09:36:37.334Z,572
2016-12-13T09:37:37.352Z,568
2016-12-13T09:38:37.689Z,572
2016-12-13T09:39:37.445Z,572
2016-12-13T09:40:37.709Z,576
2016-12-13T09:41:37.566Z,588
2016-12-13T09:42:37.423Z,604
2016-12-13T09:43:37.430Z,612
2016-12-13T09:44:37.441Z,616
2016-12-13T09:45:37.463Z,620
2016-12-13T09:46:37.476Z,620
2016-12-13T09:47:37.486Z,616
2016-12-13T09:48:37.498Z,604
2016-12-13T09:49:37.514Z,588
2016-12-13T09:50:37.531Z,580
2016-12-13T09:51:37.544Z,576
2016-12-13T09:52:37.611Z,572
2016-12-13T09:53:37.575Z,572
2016-12-13T09:54:37.596Z,564
2016-12-13T09:55:37.604Z,572
2016-12-13T09:56:37.616Z,588
2016-12-13T09:57:37.628Z,608
2016-12-13T09:58:37.650Z,612
2016-12-13T09:59:37.660Z,616
2016-12-13T10:00:37.676Z,620
2016-12-13T10:01:37.688Z,624
2016-12-13T10:02:37.817Z,632
2016-12-13T10:03:37.898Z,636
2016-12-13T10:04:37.897Z,644
2016-12-13T10:05:37.863Z,656
2016-12-13T10:06:37.915Z,660
2016-12-13T10:07:37.964Z,652
2016-12-13T10:08:37.963Z,632
2016-12-13T10:09:37.919Z,620
2016-12-13T10:10:37.980Z,612
2016-12-13T10:11:37.989Z,592
2016-12-13T10:12:37.998Z,584
2016-12-13T10:13:37.997Z,608
2016-12-13T10:14:38.004Z,644
2016-12-13T10:15:38.015Z,676
2016-12-13T10:16:38.023Z,708
2016-12-13T10:17:38.033Z,736
2016-12-13T10:18:38.029Z,772
2016-12-13T10:19:38.029Z,800
2016-12-13T10:20:37.965Z,824
2016-12-13T10:21:37.980Z,848
2016-12-13T10:22:37.993Z,864
2016-12-13T10:23:38.130Z,888
2016-12-13T10:24:38.025Z,912
2016-12-13T10:25:38.039Z,944
2016-12-13T10:26:38.053Z,960
2016-12-13T10:27:38.078Z,952
2016-12-13T10:28:38.085Z,928
2016-12-13T10:29:38.097Z,904
2016-12-13T10:30:38.116Z,892
2016-12-13T10:31:38.131Z,872
2016-12-13T10:32:38.148Z,852
2016-12-13T10:33:38.158Z,828
2016-12-13T10:34:38.174Z,820
2016-12-13T10:35:38.189Z,816
2016-12-13T10:36:38.203Z,808
2016-12-13T10:37:38.548Z,812
2016-12-13T10:38:38.239Z,816
2016-12-13T10:39:38.246Z,808
2016-12-13T10:40:38.267Z,800
2016-12-13T10:41:38.275Z,788
2016-12-13T10:42:38.324Z,772
2016-12-13T10:43:38.314Z,760
2016-12-13T10:44:38.321Z,752
2016-12-13T10:45:38.342Z,744
2016-12-13T10:46:38.349Z,732
2016-12-13T10:47:38.364Z,720
2016-12-13T10:48:38.437Z,720
2016-12-13T10:49:38.396Z,724
2016-12-13T10:50:38.439Z,728
2016-12-13T10:51:38.435Z,732
2016-12-13T10:52:38.437Z,744
2016-12-13T10:53:38.452Z,760
2016-12-13T10:54:38.476Z,772
2016-12-13T10:55:38.497Z,788
2016-12-13T10:56:38.508Z,800
2016-12-13T10:57:38.591Z,812
2016-12-13T10:58:38.599Z,804
2016-12-13T10:59:38.608Z,796
2016-12-13T11:00:38.617Z,780
2016-12-13T11:01:38.626Z,756
2016-12-13T11:02:38.685Z,736
2016-12-13T11:03:38.694Z,728
2016-12-13T11:04:38.703Z,724
2016-12-13T11:05:38.712Z,716
2016-12-13T11:06:38.762Z,724
2016-12-13T11:07:38.720Z,728
2016-12-13T11:08:38.725Z,736
2016-12-13T11:09:38.737Z,740
2016-12-13T11:10:38.743Z,744
2016-12-13T11:11:38.740Z,752
2016-12-13T11:12:38.752Z,752
2016-12-13T11:13:38.766Z,732
2016-12-13T11:14:38.811Z,716
2016-12-13T11:15:38.821Z,696
2016-12-13T11:16:38.820Z,688
2016-12-13T11:17:38.826Z,688
2016-12-13T11:18:39.145Z,684
2016-12-13T11:19:39.163Z,668
2016-12-13T11:20:38.860Z,656
2016-12-13T11:21:38.877Z,644
2016-12-13T11:22:38.890Z,636
2016-12-13T11:23:38.943Z,640
2016-12-13T11:24:39.246Z,644
2016-12-13T11:25:38.934Z,660
2016-12-13T11:26:38.957Z,664
2016-12-13T11:27:38.977Z,664
2016-12-13T11:28:38.986Z,664
2016-12-13T11:29:39.003Z,676
2016-12-13T11:30:39.010Z,692
2016-12-13T11:31:39.057Z,716
2016-12-13T11:32:39.046Z,728
2016-12-13T11:33:39.061Z,716
2016-12-13T11:34:39.079Z,708
2016-12-13T11:35:39.095Z,700
2016-12-13T11:36:39.109Z,700
2016-12-13T11:37:39.120Z,720
2016-12-13T11:38:39.138Z,736
2016-12-13T11:39:39.157Z,748
2016-12-13T11:40:39.169Z,756
2016-12-13T11:41:39.186Z,760
2016-12-13T11:42:39.527Z,752
2016-12-13T11:43:39.213Z,748
2016-12-13T11:44:39.231Z,732
2016-12-13T11:45:39.239Z,692
2016-12-13T11:46:39.262Z,632
2016-12-13T11:47:39.271Z,584
2016-12-13T11:48:39.294Z,548
2016-12-13T11:49:39.311Z,520
2016-12-13T11:50:39.323Z,476
2016-12-13T11:51:39.335Z,436
2016-12-13T11:52:39.482Z,424
2016-12-13T11:53:39.469Z,424
2016-12-13T11:54:39.485Z,432
2016-12-13T11:55:39.486Z,432
2016-12-13T11:56:39.415Z,448
2016-12-13T11:57:39.432Z,468
2016-12-13T11:58:39.525Z,492
2016-12-13T11:59:39.462Z,504
2016-12-13T12:00:39.477Z,508
2016-12-13T12:01:39.489Z,516
2016-12-13T12:02:39.505Z,524
2016-12-13T12:03:39.519Z,512
2016-12-13T12:04:39.533Z,500
2016-12-13T12:05:39.552Z,496
2016-12-13T12:06:39.571Z,488
2016-12-13T12:07:39.578Z,516
2016-12-13T12:08:39.601Z,520
2016-12-13T12:09:39.614Z,532
2016-12-13T12:10:39.629Z,532
2016-12-13T12:11:39.647Z,520
2016-12-13T12:12:39.659Z,524
2016-12-13T12:13:39.677Z,548
2016-12-13T12:14:39.687Z,572
2016-12-13T12:15:39.705Z,580
2016-12-13T12:16:39.723Z,604
2016-12-13T12:17:39.739Z,640
2016-12-13T12:18:39.752Z,652
2016-12-13T12:19:39.766Z,656
2016-12-13T12:20:39.808Z,656
2016-12-13T12:21:39.799Z,648
2016-12-13T12:22:39.813Z,652
2016-12-13T12:23:39.832Z,628
2016-12-13T12:24:39.844Z,608
2016-12-13T12:25:39.895Z,612
2016-12-13T12:26:39.877Z,620
2016-12-13T12:27:39.913Z,632
2016-12-13T12:28:39.908Z,644
2016-12-13T12:29:39.923Z,644
2016-12-13T12:30:39.937Z,632
2016-12-13T12:31:39.949Z,636
2016-12-13T12:32:39.969Z,636
2016-12-13T12:33:39.982Z,628
2016-12-13T12:34:39.999Z,632
2016-12-13T12:35:40.087Z,644
2016-12-13T12:36:40.098Z,640
2016-12-13T12:37:40.151Z,628
2016-12-13T12:38:40.177Z,616
2016-12-13T12:39:40.167Z,604
2016-12-13T12:40:40.175Z,600
2016-12-13T12:41:40.199Z,600
2016-12-13T12:42:40.209Z,596
2016-12-13T12:43:40.236Z,588
2016-12-13T12:44:40.154Z,580
2016-12-13T12:45:40.166Z,576
2016-12-13T12:46:40.190Z,564
2016-12-13T12:47:40.233Z,548
2016-12-13T12:48:40.218Z,536
2016-12-13T12:49:40.234Z,524
2016-12-13T12:50:40.247Z,512
2016-12-13T12:51:40.267Z,500
2016-12-13T12:52:40.273Z,492
2016-12-13T12:53:40.296Z,484
2016-12-13T12:54:40.310Z,472
2016-12-13T12:55:40.641Z,464
2016-12-13T12:56:40.339Z,448
2016-12-13T12:57:40.359Z,440
2016-12-13T12:58:40.370Z,428
2016-12-13T12:59:40.387Z,420
2016-12-13T13:00:40.406Z,416
2016-12-13T13:01:40.415Z,408
2016-12-13T13:02:40.647Z,412
2016-12-13T13:03:40.449Z,416
2016-12-13T13:04:40.461Z,424
2016-12-13T13:05:40.484Z,440
2016-12-13T13:06:40.498Z,452
2016-12-13T13:07:40.511Z,460
2016-12-13T13:08:40.525Z,468
2016-12-13T13:09:40.544Z,468
2016-12-13T13:10:40.558Z,468
2016-12-13T13:11:40.575Z,468
2016-12-13T13:12:40.630Z,468
2016-12-13T13:13:40.605Z,468
2016-12-13T13:14:40.636Z,476
2016-12-13T13:15:40.727Z,484
2016-12-13T13:16:40.767Z,480
2016-12-13T13:17:40.758Z,472
2016-12-13T13:18:41.196Z,460
2016-12-13T13:19:40.786Z,448
2016-12-13T13:20:40.808Z,436
2016-12-13T13:21:40.883Z,428
2016-12-13T13:22:40.895Z,424
2016-12-13T13:23:40.756Z,428
2016-12-13T13:24:40.773Z,428
2016-12-13T13:25:40.790Z,420
2016-12-13T13:26:40.817Z,404
2016-12-13T13:27:40.819Z,384
2016-12-13T13:28:40.842Z,368
2016-12-13T13:29:40.853Z,356
2016-12-13T13:30:40.869Z,348
2016-12-13T13:31:40.882Z,340
2016-12-13T13:32:40.900Z,328
2016-12-13T13:33:40.917Z,320
2016-12-13T13:34:40.942Z,320
2016-12-13T13:35:40.950Z,320
2016-12-13T13:36:41.279Z,316
2016-12-13T13:37:40.973Z,316
2016-12-13T13:38:40.997Z,312
2016-12-13T13:39:41.007Z,308
2016-12-13T13:40:41.027Z,300
2016-12-13T13:41:41.040Z,300
2016-12-13T13:42:41.061Z,300
2016-12-13T13:43:41.071Z,296
2016-12-13T13:44:41.083Z,292
2016-12-13T13:45:41.104Z,288
2016-12-13T13:46:41.123Z,280
2016-12-13T13:47:41.134Z,272
2016-12-13T13:48:41.150Z,264
2016-12-13T13:49:41.163Z,256
2016-12-13T13:50:41.184Z,256
2016-12-13T13:51:41.198Z,252
2016-12-13T13:52:41.213Z,252
2016-12-13T13:53:41.233Z,256
2016-12-13T13:54:41.246Z,264
2016-12-13T13:55:41.263Z,264
2016-12-13T13:56:41.279Z,272
2016-12-13T13:57:41.289Z,272
2016-12-13T13:58:41.310Z,268
2016-12-13T13:59:41.325Z,264
2016-12-13T14:00:41.333Z,252
2016-12-13T14:01:41.358Z,244
2016-12-13T14:02:41.373Z,232
2016-12-13T14:03:41.386Z,228
2016-12-13T14:04:41.403Z,224
2016-12-13T14:05:41.412Z,220
2016-12-13T14:06:41.432Z,212
2016-12-13T14:07:41.448Z,208
2016-12-13T14:08:41.465Z,204
2016-12-13T14:09:41.482Z,196
2016-12-13T14:10:41.496Z,192
2016-12-13T14:11:41.514Z,188
2016-12-13T14:12:41.644Z,180
2016-12-13T14:13:41.659Z,176
2016-12-13T14:14:41.645Z,168
2016-12-13T14:15:41.667Z,160
2016-12-13T14:16:41.674Z,156